createdAt,value
2022-09-14T00:03:34.288Z,24.40
2022-09-14T00:18:38.647Z,24.20
2022-09-14T00:33:45.097Z,24.50
2022-09-14T00:48:50.136Z,24.60
2022-09-14T01:03:54.564Z,24.40
2022-09-14T01:19:01.221Z,24.50
2022-09-14T01:34:10.391Z,24.30
2022-09-14T01:49:19.054Z,24.50
2022-09-14T02:04:32.329Z,24.40
2022-09-14T02:19:41.476Z,24.40
2022-09-14T02:34:54.445Z,24.30
2022-09-14T02:50:07.853Z,24.30
2022-09-14T03:05:12.018Z,24.20
2022-09-14T03:20:16.635Z,24.10
2022-09-14T03:35:21.380Z,24.20
2022-09-14T03:50:25.692Z,24.20
2022-09-14T04:05:29.998Z,24.20
2022-09-14T04:20:34.362Z,24.00
2022-09-14T04:35:38.739Z,23.70
2022-09-14T04:50:43.459Z,23.60
2022-09-14T05:05:47.759Z,23.50
2022-09-14T05:20:52.194Z,23.40
2022-09-14T05:36:02.317Z,23.50
2022-09-14T05:51:08.656Z,23.80
2022-09-14T06:06:15.395Z,23.80
2022-09-14T06:21:21.081Z,23.90
2022-09-14T06:36:27.465Z,23.60
2022-09-14T06:51:34.223Z,23.60
2022-09-14T07:06:43.021Z,23.60
2022-09-14T07:21:48.376Z,23.90
2022-09-14T07:36:52.700Z,23.80
2022-09-14T07:51:57.429Z,24.00
2022-09-14T08:07:02.012Z,24.00
2022-09-14T08:22:06.684Z,24.10
2022-09-14T08:37:12.002Z,24.10
2022-09-14T08:52:24.634Z,24.30
2022-09-14T09:07:36.975Z,24.40
2022-09-14T09:22:44.608Z,24.60
2022-09-14T09:37:48.913Z,24.50
2022-09-14T09:52:55.623Z,24.40
2022-09-14T10:08:02.253Z,24.70
2022-09-14T10:23:28.672Z,24.80
2022-09-14T10:38:35.907Z,24.90
2022-09-14T10:53:51.458Z,24.90
2022-09-14T11:09:03.836Z,25.30
2022-09-14T11:24:18.289Z,25.60
2022-09-14T11:39:26.696Z,26.10
2022-09-14T11:54:31.474Z,26.20
2022-09-14T12:09:44.561Z,26.30
2022-09-14T12:24:59.223Z,26.20
2022-09-14T12:40:38.425Z,26.10
2022-09-14T12:55:53.480Z,26.50
2022-09-14T13:10:57.841Z,26.80
2022-09-14T13:26:10.954Z,26.60
2022-09-14T13:41:17.633Z,26.20
2022-09-14T13:56:30.845Z,27.90
2022-09-14T14:11:38.330Z,27.90
2022-09-14T14:26:49.307Z,27.40
2022-09-14T14:41:54.022Z,26.70
2022-09-14T14:56:58.854Z,27.00
2022-09-14T15:12:03.498Z,29.40
2022-09-14T15:27:08.067Z,29.70
2022-09-14T15:42:12.464Z,28.30
2022-09-14T15:57:16.809Z,28.90
2022-09-14T16:12:21.112Z,28.60
2022-09-14T16:27:25.739Z,27.30
2022-09-14T16:42:30.076Z,26.80
2022-09-14T16:57:34.717Z,26.10
2022-09-14T17:12:39.029Z,26.80
2022-09-14T17:27:43.475Z,26.90
2022-09-14T17:42:47.767Z,26.40
2022-09-14T17:57:52.214Z,26.00
2022-09-14T18:12:56.666Z,25.70
2022-09-14T18:28:00.962Z,25.70
2022-09-14T18:43:05.313Z,25.60
2022-09-14T18:58:09.607Z,25.80
2022-09-14T19:13:15.173Z,25.70
2022-09-14T19:28:19.489Z,25.40
2022-09-14T19:43:23.825Z,25.20
2022-09-14T19:58:28.609Z,24.80
2022-09-14T20:13:33.028Z,24.70
2022-09-14T20:28:38.721Z,24.50
2022-09-14T20:43:46.240Z,24.40
2022-09-14T20:58:54.264Z,24.00
2022-09-14T21:13:59.013Z,24.30
2022-09-14T21:29:05.364Z,24.30
2022-09-14T21:44:09.730Z,23.90
2022-09-14T21:59:16.634Z,23.90
2022-09-14T22:14:22.705Z,23.50
2022-09-14T22:29:27.063Z,23.30
2022-09-14T22:44:31.424Z,23.00
2022-09-14T22:59:35.735Z,22.70
2022-09-14T23:14:40.060Z,23.20
2022-09-14T23:29:44.426Z,22.70
2022-09-14T23:44:48.733Z,23.00
2022-09-14T23:59:53.024Z,22.90
